createdAt,value
2017-05-13T00:00:36.388Z,16.86
2017-05-13T00:01:45.347Z,16.79
2017-05-13T00:02:54.306Z,16.82
2017-05-13T00:04:03.266Z,16.76
2017-05-13T00:05:12.477Z,16.75
2017-05-13T00:06:21.436Z,16.73
2017-05-13T00:07:30.481Z,16.64
2017-05-13T00:08:39.443Z,16.71
2017-05-13T00:09:48.399Z,16.7
2017-05-13T00:10:57.615Z,16.68
2017-05-13T00:12:06.576Z,16.71
2017-05-13T00:13:15.541Z,16.68
2017-05-13T00:14:24.502Z,16.76
2017-05-13T00:15:33.459Z,16.7
2017-05-13T00:16:42.668Z,16.66
2017-05-13T00:17:51.955Z,16.73
2017-05-13T00:19:00.962Z,16.78
2017-05-13T00:20:09.934Z,16.7
2017-05-13T00:21:18.887Z,16.73
2017-05-13T00:22:28.150Z,16.75
2017-05-13T00:23:37.112Z,16.61
2017-05-13T00:24:46.085Z,16.6
2017-05-13T00:25:55.045Z,16.57
2017-05-13T00:27:04.005Z,16.58
2017-05-13T00:28:13.210Z,16.56
2017-05-13T00:29:22.179Z,16.68
2017-05-13T00:30:31.141Z,16.68
2017-05-13T00:31:40.105Z,16.71
2017-05-13T00:32:49.065Z,16.63
2017-05-13T00:33:58.281Z,16.56
2017-05-13T00:35:07.255Z,16.57
2017-05-13T00:36:16.212Z,16.64
2017-05-13T00:37:25.172Z,16.58
2017-05-13T00:38:34.139Z,16.58
2017-05-13T00:39:43.362Z,16.57
2017-05-13T00:40:52.650Z,16.52
2017-05-13T00:42:01.617Z,16.6
2017-05-13T00:43:10.578Z,16.61
2017-05-13T00:44:19.538Z,16.57
2017-05-13T00:45:28.746Z,16.56
2017-05-13T00:46:37.702Z,16.46
2017-05-13T00:47:46.669Z,16.57
2017-05-13T00:48:55.955Z,16.57
2017-05-13T00:50:04.913Z,16.57
2017-05-13T00:51:14.120Z,16.48
2017-05-13T00:52:23.094Z,16.45
2017-05-13T00:53:32.056Z,16.45
2017-05-13T00:54:41.011Z,16.49
2017-05-13T00:55:49.967Z,16.49
2017-05-13T00:56:59.176Z,16.49
2017-05-13T00:58:08.231Z,16.39
2017-05-13T00:59:17.201Z,16.42
2017-05-13T01:00:26.160Z,16.38
2017-05-13T01:01:35.118Z,16.33
2017-05-13T01:02:44.329Z,16.3
2017-05-13T01:03:53.296Z,16.34
2017-05-13T01:05:02.257Z,16.3
2017-05-13T01:06:11.306Z,16.21
2017-05-13T01:07:20.345Z,16.2
2017-05-13T01:08:29.560Z,16.23
2017-05-13T01:09:38.522Z,16.17
2017-05-13T01:10:47.574Z,16.15
2017-05-13T01:11:56.623Z,16.11
2017-05-13T01:13:05.589Z,16.17
2017-05-13T01:14:14.848Z,16.17
2017-05-13T01:15:23.813Z,16.05
2017-05-13T01:16:32.779Z,16.21
2017-05-13T01:17:41.917Z,16.17
2017-05-13T01:18:50.923Z,16.15
2017-05-13T01:20:00.135Z,16.2
2017-05-13T01:21:09.094Z,16.09
2017-05-13T01:22:18.051Z,16.12
2017-05-13T01:23:27.339Z,16.02
2017-05-13T01:24:36.304Z,16.09
2017-05-13T01:25:45.522Z,16.05
2017-05-13T01:26:54.481Z,16.02
2017-05-13T01:28:03.441Z,16.02
2017-05-13T01:29:12.405Z,16
2017-05-13T01:30:21.686Z,16
2017-05-13T01:31:30.916Z,15.97
2017-05-13T01:32:39.873Z,16.04
2017-05-13T01:33:48.829Z,16
2017-05-13T01:34:57.795Z,15.96
2017-05-13T01:36:06.758Z,15.94
2017-05-13T01:37:15.970Z,15.89
2017-05-13T01:38:24.931Z,15.84
2017-05-13T01:39:33.887Z,15.78
2017-05-13T01:40:42.941Z,15.8
2017-05-13T01:41:51.990Z,15.67
2017-05-13T01:43:01.204Z,15.59
2017-05-13T01:44:10.162Z,15.53
2017-05-13T01:45:19.121Z,15.49
2017-05-13T01:46:28.081Z,15.46
2017-05-13T01:47:37.043Z,15.49
2017-05-13T01:48:46.274Z,15.46
2017-05-13T01:49:55.235Z,15.49
2017-05-13T01:51:04.195Z,15.49
2017-05-13T01:52:13.241Z,15.41
2017-05-13T01:53:22.201Z,15.39
2017-05-13T01:54:31.415Z,15.39
2017-05-13T01:55:40.391Z,15.41
2017-05-13T01:56:49.354Z,15.38
2017-05-13T01:57:58.324Z,15.35
2017-05-13T01:59:07.373Z,15.34
2017-05-13T02:00:16.580Z,15.28
2017-05-13T02:01:25.549Z,15.19
2017-05-13T02:02:34.528Z,15.25
2017-05-13T02:03:43.488Z,15.29
2017-05-13T02:04:52.448Z,15.25
2017-05-13T02:06:01.658Z,15.19
2017-05-13T02:07:10.620Z,15.21
2017-05-13T02:08:19.583Z,15.25
2017-05-13T02:09:28.548Z,15.21
2017-05-13T02:10:37.592Z,15.23
2017-05-13T02:11:46.965Z,15.16
2017-05-13T02:12:56.015Z,15.2
2017-05-13T02:14:05.063Z,15.2
2017-05-13T02:15:14.026Z,15.14
2017-05-13T02:16:22.984Z,15.29
2017-05-13T02:17:32.193Z,15.25
2017-05-13T02:18:41.152Z,15.28
2017-05-13T02:19:50.112Z,15.2
2017-05-13T02:20:59.076Z,15.27
2017-05-13T02:22:08.032Z,15.23
2017-05-13T02:23:17.243Z,15.17
2017-05-13T02:24:26.334Z,15.1
2017-05-13T02:25:35.292Z,15.1
2017-05-13T02:26:44.264Z,15.11
2017-05-13T02:27:53.548Z,15.09
2017-05-13T02:29:02.764Z,14.99
2017-05-13T02:30:11.731Z,15.09
2017-05-13T02:31:20.780Z,15.02
2017-05-13T02:32:29.741Z,15.07
2017-05-13T02:33:38.699Z,15.03
2017-05-13T02:34:47.995Z,15.09
2017-05-13T02:35:57.081Z,15.11
2017-05-13T02:37:06.046Z,15.1
2017-05-13T02:38:15.009Z,15.1
2017-05-13T02:39:23.967Z,15.06
2017-05-13T02:40:33.175Z,15.07
2017-05-13T02:41:42.136Z,15.09
2017-05-13T02:42:51.096Z,15.13
2017-05-13T02:44:00.058Z,15.2
2017-05-13T02:45:09.014Z,15.28
2017-05-13T02:46:18.218Z,15.17
2017-05-13T02:47:27.175Z,15.21
2017-05-13T02:48:36.132Z,15.19
2017-05-13T02:49:45.097Z,15.32
2017-05-13T02:50:54.059Z,15.28
2017-05-13T02:52:03.269Z,15.29
2017-05-13T02:53:12.229Z,15.34
2017-05-13T02:54:21.187Z,15.39
2017-05-13T02:55:30.149Z,15.38
2017-05-13T02:56:39.245Z,15.36
2017-05-13T02:57:48.454Z,15.27
2017-05-13T02:58:57.420Z,15.31
2017-05-13T03:00:06.385Z,15.34
2017-05-13T03:01:15.347Z,15.27
2017-05-13T03:02:24.391Z,15.19
2017-05-13T03:03:33.601Z,15.14
2017-05-13T03:04:42.563Z,15.06
2017-05-13T03:05:53.592Z,15.11
2017-05-13T03:07:02.559Z,15.06
2017-05-13T03:08:11.522Z,14.98
2017-05-13T03:09:20.777Z,15.01
2017-05-13T03:10:29.745Z,15.06
2017-05-13T03:11:38.696Z,15.02
2017-05-13T03:12:47.983Z,14.98
2017-05-13T03:13:56.954Z,14.94
2017-05-13T03:15:06.168Z,14.95
2017-05-13T03:16:15.159Z,14.81
2017-05-13T03:17:24.117Z,14.81
2017-05-13T03:18:33.079Z,14.81
2017-05-13T03:19:42.037Z,14.7
2017-05-13T03:20:51.302Z,14.77
2017-05-13T03:22:00.354Z,14.69
2017-05-13T03:23:09.314Z,14.65
2017-05-13T03:24:18.279Z,14.61
2017-05-13T03:25:27.239Z,14.6
2017-05-13T03:26:36.502Z,14.65
2017-05-13T03:27:45.931Z,14.61
2017-05-13T03:28:54.892Z,14.7
2017-05-13T03:30:04.190Z,14.61
2017-05-13T03:31:13.324Z,14.64
2017-05-13T03:32:22.587Z,14.61
2017-05-13T03:33:31.629Z,14.47
2017-05-13T03:34:40.676Z,14.55
2017-05-13T03:35:49.644Z,14.52
2017-05-13T03:36:58.602Z,14.51
2017-05-13T03:38:07.812Z,14.47
2017-05-13T03:39:16.778Z,14.43
2017-05-13T03:40:25.739Z,14.5
2017-05-13T03:41:34.695Z,14.45
2017-05-13T03:42:43.655Z,14.46
2017-05-13T03:43:52.957Z,14.45
2017-05-13T03:45:01.922Z,14.43
2017-05-13T03:46:10.878Z,14.43
2017-05-13T03:47:19.837Z,14.42
2017-05-13T03:48:28.889Z,14.37
2017-05-13T03:49:38.242Z,14.42
2017-05-13T03:50:47.253Z,14.45
2017-05-13T03:51:56.218Z,14.5
2017-05-13T03:53:05.180Z,14.52
2017-05-13T03:54:14.138Z,14.51
2017-05-13T03:55:23.349Z,14.51
2017-05-13T03:56:32.628Z,14.5
2017-05-13T03:57:41.590Z,14.5
2017-05-13T03:58:50.546Z,14.52
2017-05-13T03:59:59.507Z,14.51
2017-05-13T04:01:08.718Z,14.47
2017-05-13T04:02:17.680Z,14.47
2017-05-13T04:03:26.644Z,14.47
2017-05-13T04:04:35.603Z,14.42
2017-05-13T04:05:44.560Z,14.47
2017-05-13T04:06:53.818Z,14.46
2017-05-13T04:08:02.775Z,14.5
2017-05-13T04:09:11.739Z,14.62
2017-05-13T04:10:20.781Z,14.65
2017-05-13T04:11:29.740Z,14.62
2017-05-13T04:12:38.951Z,14.6
2017-05-13T04:13:47.922Z,14.61
2017-05-13T04:14:56.881Z,14.64
2017-05-13T04:16:05.839Z,14.55
2017-05-13T04:17:14.798Z,14.65
2017-05-13T04:18:24.068Z,14.65
2017-05-13T04:19:33.027Z,14.6
2017-05-13T04:20:41.980Z,14.65
2017-05-13T04:21:50.987Z,14.68
2017-05-13T04:22:59.957Z,14.65
2017-05-13T04:24:09.214Z,14.65
2017-05-13T04:25:18.262Z,14.65
2017-05-13T04:26:27.223Z,14.64
2017-05-13T04:27:36.231Z,14.62
2017-05-13T04:28:45.519Z,14.65
2017-05-13T04:29:54.727Z,14.62
2017-05-13T04:31:03.693Z,14.64
2017-05-13T04:32:12.700Z,14.65
2017-05-13T04:33:21.665Z,14.64
2017-05-13T04:34:30.627Z,14.65
2017-05-13T04:35:39.833Z,14.61
2017-05-13T04:36:48.792Z,14.65
2017-05-13T04:37:57.833Z,14.64
2017-05-13T04:39:06.882Z,14.7
2017-05-13T04:40:15.835Z,14.68
2017-05-13T04:41:25.052Z,14.73
2017-05-13T04:42:34.339Z,14.72
2017-05-13T04:43:43.386Z,14.8
2017-05-13T04:44:52.344Z,14.84
2017-05-13T04:46:01.302Z,14.91
2017-05-13T04:47:10.510Z,14.96
2017-05-13T04:48:19.474Z,14.96
2017-05-13T04:49:28.446Z,15.02
2017-05-13T04:50:37.496Z,15.02
2017-05-13T04:51:46.458Z,14.99
2017-05-13T04:52:55.707Z,15.02
2017-05-13T04:54:04.765Z,14.98
2017-05-13T04:55:13.720Z,15.09
2017-05-13T04:56:22.677Z,15.17
2017-05-13T04:57:31.637Z,15.13
2017-05-13T04:58:41.222Z,15.14
2017-05-13T04:59:50.358Z,15.16
2017-05-13T05:00:59.329Z,15.23
2017-05-13T05:02:08.287Z,15.25
2017-05-13T05:03:17.245Z,15.17
2017-05-13T05:04:26.501Z,15.23
2017-05-13T05:05:35.545Z,15.35
2017-05-13T05:06:44.503Z,15.25
2017-05-13T05:07:53.463Z,15.34
2017-05-13T05:09:02.427Z,15.39
2017-05-13T05:10:11.640Z,15.38
2017-05-13T05:11:20.931Z,15.41
2017-05-13T05:12:29.982Z,15.35
2017-05-13T05:13:38.939Z,15.38
2017-05-13T05:14:47.897Z,15.53
2017-05-13T05:15:57.110Z,15.43
2017-05-13T05:17:06.064Z,15.46
2017-05-13T05:18:15.026Z,15.41
2017-05-13T05:19:23.984Z,15.41
2017-05-13T05:20:33.035Z,15.39
2017-05-13T05:21:42.296Z,15.36
2017-05-13T05:22:51.349Z,15.38
2017-05-13T05:24:00.311Z,15.35
2017-05-13T05:25:09.267Z,15.34
2017-05-13T05:26:18.553Z,15.34
2017-05-13T05:27:27.814Z,15.35
2017-05-13T05:28:36.776Z,15.38
2017-05-13T05:29:45.735Z,15.35
2017-05-13T05:30:54.782Z,15.38
2017-05-13T05:32:03.744Z,15.38
2017-05-13T05:33:12.953Z,15.39
2017-05-13T05:34:21.913Z,15.43
2017-05-13T05:35:30.871Z,15.47
2017-05-13T05:36:39.827Z,15.49
2017-05-13T05:37:48.783Z,15.44
2017-05-13T05:38:58.130Z,15.23
2017-05-13T05:40:07.088Z,15.28
2017-05-13T05:41:16.042Z,15.01
2017-05-13T05:42:25.006Z,15.02
2017-05-13T05:43:33.960Z,14.98
2017-05-13T05:44:43.172Z,14.8
2017-05-13T05:45:52.138Z,14.8
2017-05-13T05:47:01.095Z,14.73
2017-05-13T05:48:10.056Z,14.72
2017-05-13T05:49:19.145Z,14.69
2017-05-13T05:50:28.402Z,14.62
2017-05-13T05:51:37.509Z,14.57
2017-05-13T05:52:46.500Z,14.47
2017-05-13T05:53:55.456Z,14.52
2017-05-13T05:55:04.422Z,14.45
2017-05-13T05:56:13.631Z,14.51
2017-05-13T05:57:22.590Z,14.51
2017-05-13T05:58:31.633Z,14.46
2017-05-13T05:59:40.594Z,14.43
2017-05-13T06:00:49.556Z,14.45
2017-05-13T06:01:58.848Z,14.4
2017-05-13T06:03:07.805Z,14.42
2017-05-13T06:04:16.766Z,14.37
2017-05-13T06:05:25.725Z,14.32
2017-05-13T06:06:34.682Z,14.32
2017-05-13T06:07:43.894Z,14.33
2017-05-13T06:08:52.848Z,14.33
2017-05-13T06:10:01.804Z,14.32
2017-05-13T06:11:10.760Z,14.39
2017-05-13T06:12:19.727Z,14.33
2017-05-13T06:13:28.994Z,14.28
2017-05-13T06:14:37.973Z,14.25
2017-05-13T06:15:46.929Z,14.32
2017-05-13T06:16:55.890Z,14.33
2017-05-13T06:18:04.849Z,14.33
2017-05-13T06:19:14.052Z,14.35
2017-05-13T06:20:23.008Z,14.27
2017-05-13T06:21:31.970Z,14.36
2017-05-13T06:22:40.939Z,14.39
2017-05-13T06:23:49.895Z,14.4
2017-05-13T06:24:59.156Z,14.37
2017-05-13T06:26:08.203Z,14.45
2017-05-13T06:27:17.272Z,14.4
2017-05-13T06:28:26.233Z,14.42
2017-05-13T06:29:35.190Z,14.51
2017-05-13T06:30:44.584Z,14.46
2017-05-13T06:31:53.543Z,14.47
2017-05-13T06:33:02.497Z,14.54
2017-05-13T06:34:11.455Z,14.46
2017-05-13T06:35:20.416Z,14.47
2017-05-13T06:36:29.725Z,14.45
2017-05-13T06:37:38.766Z,14.45
2017-05-13T06:38:48.056Z,14.37
2017-05-13T06:39:57.017Z,14.43
2017-05-13T06:41:05.974Z,14.42
2017-05-13T06:42:15.267Z,14.45
2017-05-13T06:43:24.225Z,14.46
2017-05-13T06:44:33.177Z,14.47
2017-05-13T06:45:42.132Z,14.51
2017-05-13T06:46:51.091Z,14.47
2017-05-13T06:48:00.393Z,14.51
2017-05-13T06:49:09.349Z,14.55
2017-05-13T06:50:18.305Z,14.6
2017-05-13T06:51:27.404Z,14.65
2017-05-13T06:52:36.365Z,14.68
2017-05-13T06:53:45.626Z,14.61
2017-05-13T06:54:54.583Z,14.64
2017-05-13T06:56:03.551Z,14.68
2017-05-13T06:57:12.840Z,14.64
2017-05-13T06:58:21.813Z,14.7
2017-05-13T06:59:31.077Z,14.7
2017-05-13T07:00:40.124Z,14.73
2017-05-13T07:01:49.108Z,14.7
2017-05-13T07:02:58.080Z,14.77
2017-05-13T07:04:07.044Z,14.68
2017-05-13T07:05:16.346Z,14.81
2017-05-13T07:06:25.299Z,14.89
2017-05-13T07:07:34.259Z,14.94
2017-05-13T07:08:43.317Z,14.88
2017-05-13T07:09:52.598Z,14.94
2017-05-13T07:11:01.854Z,14.96
2017-05-13T07:12:10.821Z,14.95
2017-05-13T07:13:19.780Z,15.01
2017-05-13T07:14:28.834Z,15.02
2017-05-13T07:15:37.802Z,15.09
2017-05-13T07:16:47.067Z,15.03
2017-05-13T07:17:56.750Z,15.16
2017-05-13T07:19:05.799Z,15.13
2017-05-13T07:20:14.757Z,15.17
2017-05-13T07:21:23.713Z,15.14
2017-05-13T07:22:33.012Z,15.16
2017-05-13T07:23:41.978Z,15.14
2017-05-13T07:24:50.940Z,15.19
2017-05-13T07:25:59.909Z,15.23
2017-05-13T07:27:08.870Z,15.2
2017-05-13T07:28:18.077Z,15.25
2017-05-13T07:29:27.042Z,15.31
2017-05-13T07:30:36.091Z,15.21
2017-05-13T07:31:45.057Z,15.19
2017-05-13T07:32:54.055Z,15.25
2017-05-13T07:34:03.350Z,15.32
2017-05-13T07:35:12.308Z,15.38
2017-05-13T07:36:21.267Z,15.39
2017-05-13T07:37:30.277Z,15.43
2017-05-13T07:38:39.243Z,15.49
2017-05-13T07:39:48.505Z,15.38
2017-05-13T07:40:57.464Z,15.51
2017-05-13T07:42:06.426Z,15.38
2017-05-13T07:43:15.388Z,15.47
2017-05-13T07:44:24.399Z,15.49
2017-05-13T07:45:33.654Z,15.49
2017-05-13T07:46:42.614Z,15.47
2017-05-13T07:47:51.911Z,15.49
2017-05-13T07:49:00.963Z,15.46
2017-05-13T07:50:09.922Z,15.44
2017-05-13T07:51:19.133Z,15.49
2017-05-13T07:52:28.091Z,15.54
2017-05-13T07:53:37.092Z,15.59
2017-05-13T07:54:46.238Z,15.57
2017-05-13T07:55:55.200Z,15.68
2017-05-13T07:57:04.461Z,15.56
2017-05-13T07:58:13.419Z,15.69
2017-05-13T07:59:22.388Z,15.68
2017-05-13T08:00:31.346Z,15.62
2017-05-13T08:01:40.304Z,15.64
2017-05-13T08:02:49.563Z,15.64
2017-05-13T08:03:58.522Z,15.69
2017-05-13T08:05:07.479Z,15.72
2017-05-13T08:06:16.441Z,15.67
2017-05-13T08:07:25.490Z,15.68
2017-05-13T08:08:34.839Z,15.71
2017-05-13T08:09:43.796Z,15.72
2017-05-13T08:10:52.756Z,15.71
2017-05-13T08:12:01.721Z,15.69
2017-05-13T08:13:11.326Z,15.75
2017-05-13T08:14:20.574Z,15.74
2017-05-13T08:15:29.538Z,15.82
2017-05-13T08:16:38.499Z,15.72
2017-05-13T08:17:47.461Z,15.71
2017-05-13T08:18:56.423Z,15.84
2017-05-13T08:20:05.686Z,15.82
2017-05-13T08:21:14.650Z,15.83
2017-05-13T08:22:23.610Z,15.87
2017-05-13T08:23:32.610Z,15.78
2017-05-13T08:24:41.655Z,15.82
2017-05-13T08:25:50.872Z,15.82
2017-05-13T08:26:59.833Z,15.8
2017-05-13T08:28:08.793Z,15.82
2017-05-13T08:29:17.843Z,15.82
2017-05-13T08:30:26.812Z,15.83
2017-05-13T08:31:36.155Z,15.84
2017-05-13T08:32:45.114Z,15.82
2017-05-13T08:33:54.078Z,15.82
2017-05-13T08:35:03.129Z,15.75
2017-05-13T08:36:12.087Z,15.83
2017-05-13T08:37:21.300Z,15.78
2017-05-13T08:38:30.264Z,15.8
2017-05-13T08:39:39.226Z,15.8
2017-05-13T08:40:48.194Z,15.78
2017-05-13T08:41:57.154Z,15.93
2017-05-13T08:43:06.422Z,15.92
2017-05-13T08:44:15.384Z,15.92
2017-05-13T08:45:24.343Z,15.93
2017-05-13T08:46:33.301Z,15.96
2017-05-13T08:47:42.268Z,16.04
2017-05-13T08:48:51.488Z,16
2017-05-13T08:50:00.531Z,16.09
2017-05-13T08:51:09.493Z,16.11
2017-05-13T08:52:18.446Z,16.07
2017-05-13T08:53:27.725Z,16.01
2017-05-13T08:54:37.033Z,15.96
2017-05-13T08:55:45.993Z,16
2017-05-13T08:56:54.954Z,16.04
2017-05-13T08:58:03.912Z,16.01
2017-05-13T08:59:12.870Z,15.89
2017-05-13T09:00:22.079Z,16.01
2017-05-13T09:01:31.040Z,16.04
2017-05-13T09:02:40.132Z,16
2017-05-13T09:03:49.421Z,16
2017-05-13T09:04:58.410Z,16.05
2017-05-13T09:06:07.673Z,16.01
2017-05-13T09:07:16.640Z,15.86
2017-05-13T09:08:25.769Z,15.92
2017-05-13T09:09:34.737Z,15.83
2017-05-13T09:10:43.744Z,15.83
2017-05-13T09:11:53.004Z,15.75
2017-05-13T09:13:01.963Z,15.76
2017-05-13T09:14:10.920Z,15.78
2017-05-13T09:15:19.875Z,15.69
2017-05-13T09:16:28.838Z,15.69
2017-05-13T09:17:38.132Z,15.69
2017-05-13T09:18:47.271Z,15.69
2017-05-13T09:19:56.233Z,15.67
2017-05-13T09:21:05.198Z,15.65
2017-05-13T09:22:14.203Z,15.59
2017-05-13T09:23:23.462Z,15.64
2017-05-13T09:24:32.507Z,15.56
2017-05-13T09:25:41.470Z,15.5
2017-05-13T09:26:50.510Z,15.46
2017-05-13T09:27:59.472Z,15.49
2017-05-13T09:29:08.771Z,15.47
2017-05-13T09:30:17.738Z,15.5
2017-05-13T09:31:26.751Z,15.49
2017-05-13T09:32:35.844Z,15.35
2017-05-13T09:33:44.878Z,15.43
2017-05-13T09:34:54.138Z,15.38
2017-05-13T09:36:03.257Z,15.31
2017-05-13T09:37:12.215Z,15.34
2017-05-13T09:38:24.254Z,15.29
2017-05-13T09:39:36.809Z,15.29
2017-05-13T09:40:46.066Z,15.32
2017-05-13T09:41:55.022Z,15.27
2017-05-13T09:43:03.984Z,15.32
2017-05-13T09:44:12.950Z,15.21
2017-05-13T09:45:21.913Z,15.23
2017-05-13T09:46:31.116Z,15.2
2017-05-13T09:47:40.083Z,15.23
2017-05-13T09:48:49.048Z,15.31
2017-05-13T09:49:58.005Z,15.27
2017-05-13T09:51:06.962Z,15.28
2017-05-13T09:52:16.224Z,15.32
2017-05-13T09:53:25.270Z,15.39
2017-05-13T09:54:34.229Z,15.32
2017-05-13T09:55:43.188Z,15.36
2017-05-13T09:56:52.149Z,15.32
2017-05-13T09:58:01.359Z,15.39
2017-05-13T09:59:10.326Z,15.43
2017-05-13T10:00:19.281Z,15.49
2017-05-13T10:01:28.241Z,15.47
2017-05-13T10:02:37.283Z,15.47
2017-05-13T10:03:46.715Z,15.46
2017-05-13T10:04:55.672Z,15.5
2017-05-13T10:06:04.632Z,15.59
2017-05-13T10:07:13.641Z,15.59
2017-05-13T10:08:22.681Z,15.54
2017-05-13T10:09:31.940Z,15.69
2017-05-13T10:10:40.901Z,15.57
2017-05-13T10:11:49.864Z,15.6
2017-05-13T10:12:58.821Z,15.56
2017-05-13T10:14:07.779Z,15.56
2017-05-13T10:15:17.048Z,15.56
2017-05-13T10:16:26.329Z,15.68
2017-05-13T10:17:35.288Z,15.59
2017-05-13T10:18:44.255Z,15.54
2017-05-13T10:19:53.532Z,15.68
2017-05-13T10:21:02.745Z,15.65
2017-05-13T10:22:11.702Z,15.72
2017-05-13T10:23:20.656Z,15.76
2017-05-13T10:24:29.618Z,15.74
2017-05-13T10:25:38.574Z,15.8
2017-05-13T10:26:47.921Z,15.84
2017-05-13T10:27:56.878Z,15.83
2017-05-13T10:29:05.922Z,15.9
2017-05-13T10:30:14.882Z,15.94
2017-05-13T10:31:23.840Z,15.96
2017-05-13T10:32:33.101Z,16.02
2017-05-13T10:33:42.058Z,16.04
2017-05-13T10:34:51.391Z,16.08
2017-05-13T10:36:00.345Z,16.2
2017-05-13T10:37:09.304Z,16.09
2017-05-13T10:38:18.562Z,16.12
2017-05-13T10:39:27.518Z,16.17
2017-05-13T10:40:36.478Z,16.28
2017-05-13T10:41:45.435Z,16.31
2017-05-13T10:42:54.803Z,16.41
2017-05-13T10:44:04.064Z,16.42
2017-05-13T10:45:13.020Z,16.41
2017-05-13T10:46:21.975Z,16.3
2017-05-13T10:47:30.930Z,16.39
2017-05-13T10:48:39.888Z,16.42
2017-05-13T10:49:49.100Z,16.48
2017-05-13T10:50:58.060Z,16.56
2017-05-13T10:52:07.027Z,16.5
2017-05-13T10:53:15.984Z,16.57
2017-05-13T10:54:24.950Z,16.6
2017-05-13T10:55:34.206Z,16.61
2017-05-13T10:56:43.169Z,16.53
2017-05-13T10:57:52.126Z,16.53
2017-05-13T10:59:01.086Z,16.61
2017-05-13T11:00:10.059Z,16.56
2017-05-13T11:01:19.320Z,16.7
2017-05-13T11:02:28.278Z,16.58
2017-05-13T11:03:37.253Z,16.57
2017-05-13T11:04:46.545Z,16.5
2017-05-13T11:05:55.505Z,16.7
2017-05-13T11:07:04.867Z,16.6
2017-05-13T11:08:13.830Z,16.56
2017-05-13T11:09:23.114Z,16.71
2017-05-13T11:10:32.074Z,16.73
2017-05-13T11:11:41.037Z,16.68
2017-05-13T11:12:50.294Z,16.75
2017-05-13T11:13:59.250Z,16.78
2017-05-13T11:15:08.212Z,16.82
2017-05-13T11:16:17.170Z,16.78
2017-05-13T11:17:26.130Z,16.81
2017-05-13T11:18:35.387Z,16.88
2017-05-13T11:19:44.346Z,16.85
2017-05-13T11:20:53.310Z,16.85
2017-05-13T11:22:02.922Z,16.89
2017-05-13T11:23:11.963Z,16.97
2017-05-13T11:24:21.266Z,16.88
2017-05-13T11:25:30.398Z,16.98
2017-05-13T11:26:39.359Z,17.01
2017-05-13T11:27:48.326Z,17.01
2017-05-13T11:28:57.287Z,17
2017-05-13T11:30:06.559Z,17.01
2017-05-13T11:31:15.520Z,17.11
2017-05-13T11:32:24.481Z,17.06
2017-05-13T11:33:33.439Z,17.14
2017-05-13T11:34:42.490Z,17.12
2017-05-13T11:35:51.751Z,17.16
2017-05-13T11:37:00.702Z,17.16
2017-05-13T11:38:09.671Z,17.14
2017-05-13T11:39:19.041Z,17.15
2017-05-13T11:40:28.001Z,17.14
2017-05-13T11:41:37.263Z,17.22
2017-05-13T11:42:46.546Z,17.21
2017-05-13T11:43:55.507Z,17.26
2017-05-13T11:45:04.467Z,17.26
2017-05-13T11:46:13.475Z,17.21
2017-05-13T11:47:22.772Z,17.18
2017-05-13T11:48:31.737Z,17.21
2017-05-13T11:49:40.692Z,17.25
2017-05-13T11:50:49.652Z,17.25
2017-05-13T11:51:58.618Z,17.28
2017-05-13T11:53:07.875Z,17.36
2017-05-13T11:54:16.875Z,17.3
2017-05-13T11:55:25.839Z,17.37
2017-05-13T11:56:34.886Z,17.48
2017-05-13T11:57:43.846Z,17.43
2017-05-13T11:58:53.144Z,17.51
2017-05-13T12:00:02.103Z,17.41
2017-05-13T12:01:11.059Z,17.38
2017-05-13T12:02:20.018Z,17.51
2017-05-13T12:03:28.977Z,17.46
2017-05-13T12:04:38.243Z,17.54
2017-05-13T12:05:47.202Z,17.44
2017-05-13T12:06:56.167Z,17.52
2017-05-13T12:08:05.127Z,17.54
2017-05-13T12:09:14.087Z,17.55
2017-05-13T12:10:23.347Z,17.51
2017-05-13T12:11:32.308Z,17.62
2017-05-13T12:12:41.273Z,17.66
2017-05-13T12:13:50.232Z,17.58
2017-05-13T12:14:59.191Z,17.7
2017-05-13T12:16:08.454Z,17.71
2017-05-13T12:17:17.415Z,17.7
2017-05-13T12:18:26.376Z,17.74
2017-05-13T12:19:35.337Z,17.78
2017-05-13T12:20:44.380Z,17.81
2017-05-13T12:21:53.637Z,17.93
2017-05-13T12:23:02.609Z,17.96
2017-05-13T12:24:11.573Z,18
2017-05-13T12:25:20.529Z,18.11
2017-05-13T12:26:29.495Z,18.17
2017-05-13T12:27:38.706Z,18.18
2017-05-13T12:28:47.661Z,18.18
2017-05-13T12:29:56.622Z,18.36
2017-05-13T12:31:05.586Z,18.37
2017-05-13T12:32:14.634Z,18.42
2017-05-13T12:33:23.844Z,18.41
2017-05-13T12:34:32.894Z,18.51
2017-05-13T12:35:41.853Z,18.51
2017-05-13T12:36:51.150Z,18.5
2017-05-13T12:38:00.113Z,18.5
2017-05-13T12:39:09.377Z,18.45
2017-05-13T12:40:18.430Z,18.42
2017-05-13T12:41:27.391Z,18.41
2017-05-13T12:42:36.688Z,18.47
2017-05-13T12:43:45.647Z,18.5
2017-05-13T12:44:54.995Z,18.54
2017-05-13T12:46:03.954Z,18.58
2017-05-13T12:47:12.913Z,18.62
2017-05-13T12:48:21.871Z,18.57
2017-05-13T12:49:30.837Z,18.6
2017-05-13T12:50:40.049Z,18.6
2017-05-13T12:51:49.013Z,18.55
2017-05-13T12:52:57.976Z,18.63
2017-05-13T12:54:07.028Z,18.69
2017-05-13T12:55:15.990Z,18.7
2017-05-13T12:56:25.257Z,18.72
2017-05-13T12:57:34.230Z,18.76
2017-05-13T12:58:43.194Z,18.81
2017-05-13T12:59:52.248Z,18.82
2017-05-13T13:01:01.209Z,18.81
2017-05-13T13:02:10.524Z,18.81
2017-05-13T13:03:19.484Z,18.87
2017-05-13T13:04:28.446Z,18.9
2017-05-13T13:05:37.406Z,18.9
2017-05-13T13:06:46.367Z,18.98
2017-05-13T13:07:55.625Z,19.1
2017-05-13T13:09:04.676Z,19
2017-05-13T13:10:13.647Z,19.02
2017-05-13T13:11:22.698Z,19
2017-05-13T13:12:31.657Z,19.04
2017-05-13T13:13:40.868Z,19.02
2017-05-13T13:14:49.827Z,19.1
2017-05-13T13:15:58.785Z,19.14
2017-05-13T13:17:07.744Z,19.22
2017-05-13T13:18:16.706Z,19.19
2017-05-13T13:19:25.966Z,19.22
2017-05-13T13:20:34.930Z,19.28
2017-05-13T13:21:44.037Z,19.32
2017-05-13T13:22:53.419Z,19.32
2017-05-13T13:24:02.492Z,19.5
2017-05-13T13:25:11.753Z,19.5
2017-05-13T13:26:20.800Z,19.58
2017-05-13T13:27:29.758Z,19.56
2017-05-13T13:28:38.718Z,19.58
2017-05-13T13:29:47.680Z,19.61
2017-05-13T13:30:56.891Z,19.65
2017-05-13T13:32:05.848Z,19.62
2017-05-13T13:33:14.845Z,19.65
2017-05-13T13:34:23.805Z,19.73
2017-05-13T13:35:32.767Z,19.62
2017-05-13T13:36:41.977Z,19.8
2017-05-13T13:37:51.272Z,19.62
2017-05-13T13:39:00.230Z,19.68
2017-05-13T13:40:09.281Z,19.71
2017-05-13T13:41:18.245Z,19.78
2017-05-13T13:42:27.460Z,19.74
2017-05-13T13:43:36.420Z,19.87
2017-05-13T13:44:45.466Z,19.91
2017-05-13T13:45:54.428Z,19.91
2017-05-13T13:47:03.391Z,19.98
2017-05-13T13:48:12.650Z,19.95
2017-05-13T13:49:21.620Z,19.99
2017-05-13T13:50:30.582Z,19.99
2017-05-13T13:51:39.543Z,20.06
2017-05-13T13:52:48.840Z,20.13
2017-05-13T13:53:58.103Z,20.14
2017-05-13T13:55:07.079Z,20.32
2017-05-13T13:56:16.107Z,20.38
2017-05-13T13:57:25.067Z,20.41
2017-05-13T13:58:34.040Z,20.48
2017-05-13T13:59:43.305Z,20.51
2017-05-13T14:00:52.264Z,20.41
2017-05-13T14:02:01.221Z,20.51
2017-05-13T14:03:10.177Z,20.41
2017-05-13T14:04:19.141Z,20.33
2017-05-13T14:05:28.400Z,20.32
2017-05-13T14:06:37.365Z,20.29
2017-05-13T14:07:46.326Z,20.26
2017-05-13T14:08:55.293Z,20.29
2017-05-13T14:10:04.256Z,20.26
2017-05-13T14:11:13.522Z,20.26
2017-05-13T14:12:22.495Z,20.23
2017-05-13T14:13:31.458Z,20.1
2017-05-13T14:14:40.419Z,20.16
2017-05-13T14:15:49.382Z,20.13
2017-05-13T14:16:58.735Z,20.16
2017-05-13T14:18:07.697Z,20.23
2017-05-13T14:19:16.657Z,20.26
2017-05-13T14:20:25.623Z,20.26
2017-05-13T14:21:34.586Z,20.31
2017-05-13T14:22:44.171Z,20.31
2017-05-13T14:23:53.135Z,20.33
2017-05-13T14:25:02.194Z,20.33
2017-05-13T14:26:11.483Z,20.33
2017-05-13T14:27:20.482Z,20.35
2017-05-13T14:28:29.752Z,20.43
2017-05-13T14:29:38.714Z,20.33
2017-05-13T14:30:47.772Z,20.26
2017-05-13T14:31:56.823Z,20.29
2017-05-13T14:33:05.789Z,20.24
2017-05-13T14:34:15.051Z,20.2
2017-05-13T14:35:24.103Z,20.08
2017-05-13T14:36:33.068Z,20.11
2017-05-13T14:37:42.116Z,20.11
2017-05-13T14:38:51.115Z,20.11
2017-05-13T14:40:00.356Z,20.11
2017-05-13T14:41:09.322Z,20.1
2017-05-13T14:42:18.283Z,20.13
2017-05-13T14:43:27.243Z,20.16
2017-05-13T14:44:36.203Z,20.14
2017-05-13T14:45:45.510Z,20.16
2017-05-13T14:46:54.472Z,20.14
2017-05-13T14:48:03.436Z,20.17
2017-05-13T14:49:12.481Z,20.11
2017-05-13T14:50:21.533Z,20.1
2017-05-13T14:51:30.746Z,20.16
2017-05-13T14:52:39.704Z,20.03
2017-05-13T14:53:49.327Z,19.99